sensor_id;sensor_type;location;lat;lon;timestamp;temperature;humidity
35246;DHT22;21379;50.962;6.960;2023-02-15T00:01:57;2.90;99.90
35246;DHT22;21379;50.962;6.960;2023-02-15T00:04:25;2.90;99.90
35246;DHT22;21379;50.962;6.960;2023-02-15T00:07:15;2.90;99.90
35246;DHT22;21379;50.962;6.960;2023-02-15T00:09:42;2.90;99.90
35246;DHT22;21379;50.962;6.960;2023-02-15T00:12:09;2.90;99.90
35246;DHT22;21379;50.962;6.960;2023-02-15T00:14:36;2.90;99.90
35246;DHT22;21379;50.962;6.960;2023-02-15T00:17:03;2.90;99.90
35246;DHT22;21379;50.962;6.960;2023-02-15T00:19:31;2.90;99.90
35246;DHT22;21379;50.962;6.960;2023-02-15T00:21:58;2.80;99.90
35246;DHT22;21379;50.962;6.960;2023-02-15T00:24:25;2.70;99.90
35246;DHT22;21379;50.962;6.960;2023-02-15T00:26:52;2.70;99.90
35246;DHT22;21379;50.962;6.960;2023-02-15T00:29:20;2.70;99.90
35246;DHT22;21379;50.962;6.960;2023-02-15T00:31:47;2.80;99.90
35246;DHT22;21379;50.962;6.960;2023-02-15T00:34:16;2.80;99.90
35246;DHT22;21379;50.962;6.960;2023-02-15T00:36:45;2.70;99.90
35246;DHT22;21379;50.962;6.960;2023-02-15T00:39:12;2.70;99.90
35246;DHT22;21379;50.962;6.960;2023-02-15T00:41:39;2.70;99.90
35246;DHT22;21379;50.962;6.960;2023-02-15T00:44:06;2.70;99.90
35246;DHT22;21379;50.962;6.960;2023-02-15T00:46:34;2.70;99.90
35246;DHT22;21379;50.962;6.960;2023-02-15T00:49:01;2.60;99.90
35246;DHT22;21379;50.962;6.960;2023-02-15T00:51:28;2.60;99.90
35246;DHT22;21379;50.962;6.960;2023-02-15T00:53:56;2.60;99.90
35246;DHT22;21379;50.962;6.960;2023-02-15T00:56:23;2.60;99.90
35246;DHT22;21379;50.962;6.960;2023-02-15T00:58:49;2.60;99.90
35246;DHT22;21379;50.962;6.960;2023-02-15T01:01:18;2.60;99.90
35246;DHT22;21379;50.962;6.960;2023-02-15T01:03:46;2.50;99.90
35246;DHT22;21379;50.962;6.960;2023-02-15T01:06:13;2.50;99.90
35246;DHT22;21379;50.962;6.960;2023-02-15T01:08:41;2.50;99.90
35246;DHT22;21379;50.962;6.960;2023-02-15T01:11:12;2.50;99.90
35246;DHT22;21379;50.962;6.960;2023-02-15T01:13:39;2.50;99.90
35246;DHT22;21379;50.962;6.960;2023-02-15T01:16:06;2.50;99.90
35246;DHT22;21379;50.962;6.960;2023-02-15T01:18:35;2.50;99.90
35246;DHT22;21379;50.962;6.960;2023-02-15T01:21:09;2.50;99.90
35246;DHT22;21379;50.962;6.960;2023-02-15T01:23:36;2.50;99.90
35246;DHT22;21379;50.962;6.960;2023-02-15T01:26:03;2.50;99.90
35246;DHT22;21379;50.962;6.960;2023-02-15T01:28:32;2.50;99.90
35246;DHT22;21379;50.962;6.960;2023-02-15T01:30:59;2.40;99.90
35246;DHT22;21379;50.962;6.960;2023-02-15T01:33:25;2.40;99.90
35246;DHT22;21379;50.962;6.960;2023-02-15T01:35:56;2.40;99.90
35246;DHT22;21379;50.962;6.960;2023-02-15T01:38:23;2.40;99.90
35246;DHT22;21379;50.962;6.960;2023-02-15T01:40:51;2.30;99.90
35246;DHT22;21379;50.962;6.960;2023-02-15T01:43:18;2.40;99.90
35246;DHT22;21379;50.962;6.960;2023-02-15T01:45:48;2.40;99.90
35246;DHT22;21379;50.962;6.960;2023-02-15T01:48:20;2.40;99.90
35246;DHT22;21379;50.962;6.960;2023-02-15T01:50:51;2.40;99.90
35246;DHT22;21379;50.962;6.960;2023-02-15T01:53:23;2.40;99.90
35246;DHT22;21379;50.962;6.960;2023-02-15T01:55:55;2.40;99.90
35246;DHT22;21379;50.962;6.960;2023-02-15T01:58:24;2.30;99.90
35246;DHT22;21379;50.962;6.960;2023-02-15T02:00:53;2.30;99.90
35246;DHT22;21379;50.962;6.960;2023-02-15T02:03:27;2.30;99.90
35246;DHT22;21379;50.962;6.960;2023-02-15T02:05:57;2.30;99.90
35246;DHT22;21379;50.962;6.960;2023-02-15T02:08:24;2.30;99.90
35246;DHT22;21379;50.962;6.960;2023-02-15T02:10:51;2.30;99.90
35246;DHT22;21379;50.962;6.960;2023-02-15T02:13:17;2.30;99.90
35246;DHT22;21379;50.962;6.960;2023-02-15T02:15:49;2.20;99.90
35246;DHT22;21379;50.962;6.960;2023-02-15T02:18:32;2.30;99.90
35246;DHT22;21379;50.962;6.960;2023-02-15T02:21:39;2.20;99.90
35246;DHT22;21379;50.962;6.960;2023-02-15T02:24:51;2.20;99.90
35246;DHT22;21379;50.962;6.960;2023-02-15T02:27:29;2.20;99.90
35246;DHT22;21379;50.962;6.960;2023-02-15T02:30:45;2.20;99.90
35246;DHT22;21379;50.962;6.960;2023-02-15T02:33:35;2.20;99.90
35246;DHT22;21379;50.962;6.960;2023-02-15T02:36:15;2.20;99.90
35246;DHT22;21379;50.962;6.960;2023-02-15T02:38:56;2.10;99.90
35246;DHT22;21379;50.962;6.960;2023-02-15T02:41:30;2.10;99.90
35246;DHT22;21379;50.962;6.960;2023-02-15T02:44:04;2.10;99.90
35246;DHT22;21379;50.962;6.960;2023-02-15T02:46:37;2.20;99.90
35246;DHT22;21379;50.962;6.960;2023-02-15T02:49:06;2.10;99.90
35246;DHT22;21379;50.962;6.960;2023-02-15T02:51:33;2.10;99.90
35246;DHT22;21379;50.962;6.960;2023-02-15T02:54:02;2.00;99.90
35246;DHT22;21379;50.962;6.960;2023-02-15T02:56:35;2.00;99.90
35246;DHT22;21379;50.962;6.960;2023-02-15T02:59:07;2.00;99.90
35246;DHT22;21379;50.962;6.960;2023-02-15T03:01:39;2.00;99.90
35246;DHT22;21379;50.962;6.960;2023-02-15T03:04:10;2.00;99.90
35246;DHT22;21379;50.962;6.960;2023-02-15T03:06:42;2.00;99.90
35246;DHT22;21379;50.962;6.960;2023-02-15T03:09:14;2.00;99.90
35246;DHT22;21379;50.962;6.960;2023-02-15T03:11:43;1.90;99.90
35246;DHT22;21379;50.962;6.960;2023-02-15T03:14:11;1.90;99.90
35246;DHT22;21379;50.962;6.960;2023-02-15T03:16:40;1.90;99.90
35246;DHT22;21379;50.962;6.960;2023-02-15T03:19:11;1.90;99.90
35246;DHT22;21379;50.962;6.960;2023-02-15T03:21:41;1.90;99.90
35246;DHT22;21379;50.962;6.960;2023-02-15T03:24:17;1.90;99.90
35246;DHT22;21379;50.962;6.960;2023-02-15T03:26:48;1.90;99.90
35246;DHT22;21379;50.962;6.960;2023-02-15T03:29:18;1.80;99.90
35246;DHT22;21379;50.962;6.960;2023-02-15T03:31:49;1.80;99.90
35246;DHT22;21379;50.962;6.960;2023-02-15T03:34:19;1.80;99.90
35246;DHT22;21379;50.962;6.960;2023-02-15T03:36:50;1.80;99.90
35246;DHT22;21379;50.962;6.960;2023-02-15T03:39:22;1.90;99.90
35246;DHT22;21379;50.962;6.960;2023-02-15T03:41:56;1.80;99.90
35246;DHT22;21379;50.962;6.960;2023-02-15T03:44:27;1.80;99.90
35246;DHT22;21379;50.962;6.960;2023-02-15T03:47:00;1.80;99.90
35246;DHT22;21379;50.962;6.960;2023-02-15T03:49:36;1.80;99.90
35246;DHT22;21379;50.962;6.960;2023-02-15T03:52:05;1.70;99.90
35246;DHT22;21379;50.962;6.960;2023-02-15T03:54:35;1.70;99.90
35246;DHT22;21379;50.962;6.960;2023-02-15T03:57:16;1.70;99.90
35246;DHT22;21379;50.962;6.960;2023-02-15T04:00:03;1.60;99.90
35246;DHT22;21379;50.962;6.960;2023-02-15T04:03:10;1.70;99.90
35246;DHT22;21379;50.962;6.960;2023-02-15T04:05:39;1.70;99.90
35246;DHT22;21379;50.962;6.960;2023-02-15T04:08:07;1.70;99.90
35246;DHT22;21379;50.962;6.960;2023-02-15T04:10:34;1.70;99.90
35246;DHT22;21379;50.962;6.960;2023-02-15T04:13:18;1.70;99.90
35246;DHT22;21379;50.962;6.960;2023-02-15T04:15:45;1.70;99.90
35246;DHT22;21379;50.962;6.960;2023-02-15T04:18:29;1.70;99.90
35246;DHT22;21379;50.962;6.960;2023-02-15T04:21:15;1.70;99.90
35246;DHT22;21379;50.962;6.960;2023-02-15T04:23:59;1.70;99.90
35246;DHT22;21379;50.962;6.960;2023-02-15T04:26:43;1.60;99.90
35246;DHT22;21379;50.962;6.960;2023-02-15T04:29:10;1.70;99.90
35246;DHT22;21379;50.962;6.960;2023-02-15T04:31:36;1.60;99.90
35246;DHT22;21379;50.962;6.960;2023-02-15T04:34:03;1.60;99.90
35246;DHT22;21379;50.962;6.960;2023-02-15T04:36:31;1.60;99.90
35246;DHT22;21379;50.962;6.960;2023-02-15T04:38:58;1.60;99.90
35246;DHT22;21379;50.962;6.960;2023-02-15T04:41:25;1.50;99.90
35246;DHT22;21379;50.962;6.960;2023-02-15T04:43:52;1.50;99.90
35246;DHT22;21379;50.962;6.960;2023-02-15T04:46:18;1.60;99.90
35246;DHT22;21379;50.962;6.960;2023-02-15T04:48:45;1.50;99.90
35246;DHT22;21379;50.962;6.960;2023-02-15T04:51:12;1.50;99.90
35246;DHT22;21379;50.962;6.960;2023-02-15T04:53:40;1.50;99.90
35246;DHT22;21379;50.962;6.960;2023-02-15T04:56:07;1.40;99.90
35246;DHT22;21379;50.962;6.960;2023-02-15T04:58:34;1.50;99.90
35246;DHT22;21379;50.962;6.960;2023-02-15T05:01:02;1.40;99.90
35246;DHT22;21379;50.962;6.960;2023-02-15T05:03:29;1.40;99.90
35246;DHT22;21379;50.962;6.960;2023-02-15T05:05:56;1.40;99.90
35246;DHT22;21379;50.962;6.960;2023-02-15T05:08:22;1.40;99.90
35246;DHT22;21379;50.962;6.960;2023-02-15T05:10:51;1.40;99.90
35246;DHT22;21379;50.962;6.960;2023-02-15T05:13:17;1.40;99.90
35246;DHT22;21379;50.962;6.960;2023-02-15T05:15:47;1.40;99.90
35246;DHT22;21379;50.962;6.960;2023-02-15T05:18:15;1.40;99.90
35246;DHT22;21379;50.962;6.960;2023-02-15T05:20:42;1.40;99.90
35246;DHT22;21379;50.962;6.960;2023-02-15T05:23:09;1.40;99.90
35246;DHT22;21379;50.962;6.960;2023-02-15T05:25:36;1.40;99.90
35246;DHT22;21379;50.962;6.960;2023-02-15T05:28:22;1.30;99.90
35246;DHT22;21379;50.962;6.960;2023-02-15T05:30:50;1.30;99.90
35246;DHT22;21379;50.962;6.960;2023-02-15T05:33:17;1.40;99.90
35246;DHT22;21379;50.962;6.960;2023-02-15T05:35:44;1.40;99.90
35246;DHT22;21379;50.962;6.960;2023-02-15T05:38:11;1.30;99.90
35246;DHT22;21379;50.962;6.960;2023-02-15T05:40:38;1.30;99.90
35246;DHT22;21379;50.962;6.960;2023-02-15T05:43:05;1.30;99.90
35246;DHT22;21379;50.962;6.960;2023-02-15T05:45:33;1.30;99.90
35246;DHT22;21379;50.962;6.960;2023-02-15T05:47:59;1.30;99.90
35246;DHT22;21379;50.962;6.960;2023-02-15T05:50:26;1.30;99.90
35246;DHT22;21379;50.962;6.960;2023-02-15T05:52:53;1.30;99.90
35246;DHT22;21379;50.962;6.960;2023-02-15T05:55:20;1.30;99.90
35246;DHT22;21379;50.962;6.960;2023-02-15T05:57:48;1.30;99.90
35246;DHT22;21379;50.962;6.960;2023-02-15T06:00:15;1.20;99.90
35246;DHT22;21379;50.962;6.960;2023-02-15T06:02:43;1.20;99.90
35246;DHT22;21379;50.962;6.960;2023-02-15T06:05:10;1.20;99.90
35246;DHT22;21379;50.962;6.960;2023-02-15T06:07:37;1.20;99.90
35246;DHT22;21379;50.962;6.960;2023-02-15T06:10:05;1.20;99.90
35246;DHT22;21379;50.962;6.960;2023-02-15T06:12:32;1.20;99.90
35246;DHT22;21379;50.962;6.960;2023-02-15T06:14:59;1.20;99.90
35246;DHT22;21379;50.962;6.960;2023-02-15T06:17:25;1.20;99.90
35246;DHT22;21379;50.962;6.960;2023-02-15T06:19:54;1.20;99.90
35246;DHT22;21379;50.962;6.960;2023-02-15T06:22:20;1.20;99.90
35246;DHT22;21379;50.962;6.960;2023-02-15T06:24:48;1.20;99.90
35246;DHT22;21379;50.962;6.960;2023-02-15T06:27:14;1.20;99.90
35246;DHT22;21379;50.962;6.960;2023-02-15T06:29:41;1.20;99.90
35246;DHT22;21379;50.962;6.960;2023-02-15T06:32:08;1.20;99.90
35246;DHT22;21379;50.962;6.960;2023-02-15T06:34:35;1.20;99.90
35246;DHT22;21379;50.962;6.960;2023-02-15T06:37:03;1.20;99.90
35246;DHT22;21379;50.962;6.960;2023-02-15T06:39:30;1.20;99.90
35246;DHT22;21379;50.962;6.960;2023-02-15T06:41:57;1.20;99.90
35246;DHT22;21379;50.962;6.960;2023-02-15T06:44:24;1.20;99.90
35246;DHT22;21379;50.962;6.960;2023-02-15T06:46:51;1.20;99.90
35246;DHT22;21379;50.962;6.960;2023-02-15T06:49:18;1.20;99.90
35246;DHT22;21379;50.962;6.960;2023-02-15T06:51:45;1.30;99.90
35246;DHT22;21379;50.962;6.960;2023-02-15T06:54:13;1.20;99.90
35246;DHT22;21379;50.962;6.960;2023-02-15T06:56:39;1.20;99.90
35246;DHT22;21379;50.962;6.960;2023-02-15T06:59:07;1.20;99.90
35246;DHT22;21379;50.962;6.960;2023-02-15T07:01:34;1.20;99.90
35246;DHT22;21379;50.962;6.960;2023-02-15T07:04:02;1.20;99.90
35246;DHT22;21379;50.962;6.960;2023-02-15T07:06:31;1.30;99.90
35246;DHT22;21379;50.962;6.960;2023-02-15T07:08:58;1.30;99.90
35246;DHT22;21379;50.962;6.960;2023-02-15T07:11:27;1.40;99.90
35246;DHT22;21379;50.962;6.960;2023-02-15T07:14:08;1.40;99.90
35246;DHT22;21379;50.962;6.960;2023-02-15T07:16:34;1.40;99.90
35246;DHT22;21379;50.962;6.960;2023-02-15T07:19:01;1.40;99.90
35246;DHT22;21379;50.962;6.960;2023-02-15T07:21:28;1.50;99.90
35246;DHT22;21379;50.962;6.960;2023-02-15T07:23:56;1.50;99.90
35246;DHT22;21379;50.962;6.960;2023-02-15T07:26:23;1.50;99.90
35246;DHT22;21379;50.962;6.960;2023-02-15T07:28:51;1.60;99.90
35246;DHT22;21379;50.962;6.960;2023-02-15T07:31:18;1.60;99.90
35246;DHT22;21379;50.962;6.960;2023-02-15T07:33:45;1.60;99.90
35246;DHT22;21379;50.962;6.960;2023-02-15T07:36:12;1.70;99.90
35246;DHT22;21379;50.962;6.960;2023-02-15T07:38:40;1.70;99.90
35246;DHT22;21379;50.962;6.960;2023-02-15T07:41:09;1.80;99.90
35246;DHT22;21379;50.962;6.960;2023-02-15T07:43:38;1.80;99.90
35246;DHT22;21379;50.962;6.960;2023-02-15T07:46:08;1.90;99.90
35246;DHT22;21379;50.962;6.960;2023-02-15T07:48:37;2.00;99.90
35246;DHT22;21379;50.962;6.960;2023-02-15T07:51:06;2.00;99.90
35246;DHT22;21379;50.962;6.960;2023-02-15T07:53:33;2.10;99.90
35246;DHT22;21379;50.962;6.960;2023-02-15T07:56:01;2.10;99.90
35246;DHT22;21379;50.962;6.960;2023-02-15T07:58:28;2.20;99.90
35246;DHT22;21379;50.962;6.960;2023-02-15T08:01:10;2.20;99.90
35246;DHT22;21379;50.962;6.960;2023-02-15T08:03:37;2.40;99.90
35246;DHT22;21379;50.962;6.960;2023-02-15T08:06:04;2.50;99.90
35246;DHT22;21379;50.962;6.960;2023-02-15T08:08:33;2.50;99.90
35246;DHT22;21379;50.962;6.960;2023-02-15T08:11:02;2.70;99.90
35246;DHT22;21379;50.962;6.960;2023-02-15T08:13:48;2.90;99.90
35246;DHT22;21379;50.962;6.960;2023-02-15T08:16:26;3.10;99.90
35246;DHT22;21379;50.962;6.960;2023-02-15T08:18:54;3.30;99.90
35246;DHT22;21379;50.962;6.960;2023-02-15T08:21:22;3.40;99.90
35246;DHT22;21379;50.962;6.960;2023-02-15T08:23:49;3.50;99.90
35246;DHT22;21379;50.962;6.960;2023-02-15T08:26:15;3.70;99.90
35246;DHT22;21379;50.962;6.960;2023-02-15T08:28:43;3.90;99.90
35246;DHT22;21379;50.962;6.960;2023-02-15T08:31:12;4.00;99.90
35246;DHT22;21379;50.962;6.960;2023-02-15T08:33:42;4.00;99.90
35246;DHT22;21379;50.962;6.960;2023-02-15T08:36:11;4.20;99.90
35246;DHT22;21379;50.962;6.960;2023-02-15T08:38:38;4.20;99.90
35246;DHT22;21379;50.962;6.960;2023-02-15T08:41:13;4.30;99.90
35246;DHT22;21379;50.962;6.960;2023-02-15T08:43:41;4.40;99.90
35246;DHT22;21379;50.962;6.960;2023-02-15T08:46:09;4.70;99.90
35246;DHT22;21379;50.962;6.960;2023-02-15T08:48:37;4.90;99.90
35246;DHT22;21379;50.962;6.960;2023-02-15T08:51:07;5.10;99.90
35246;DHT22;21379;50.962;6.960;2023-02-15T08:53:36;5.20;99.90
35246;DHT22;21379;50.962;6.960;2023-02-15T08:56:03;5.50;99.90
35246;DHT22;21379;50.962;6.960;2023-02-15T08:58:31;5.50;99.90
35246;DHT22;21379;50.962;6.960;2023-02-15T09:00:58;5.50;99.90
35246;DHT22;21379;50.962;6.960;2023-02-15T09:03:27;6.00;99.90
35246;DHT22;21379;50.962;6.960;2023-02-15T09:05:59;6.20;99.90
35246;DHT22;21379;50.962;6.960;2023-02-15T09:08:27;6.80;99.90
35246;DHT22;21379;50.962;6.960;2023-02-15T09:11:03;7.10;99.90
35246;DHT22;21379;50.962;6.960;2023-02-15T09:13:30;7.00;99.90
35246;DHT22;21379;50.962;6.960;2023-02-15T09:15:59;7.30;99.90
35246;DHT22;21379;50.962;6.960;2023-02-15T09:18:26;7.50;99.90
35246;DHT22;21379;50.962;6.960;2023-02-15T09:20:54;7.70;99.90
35246;DHT22;21379;50.962;6.960;2023-02-15T09:23:20;7.90;99.90
35246;DHT22;21379;50.962;6.960;2023-02-15T09:25:49;8.10;99.90
35246;DHT22;21379;50.962;6.960;2023-02-15T09:28:15;7.90;99.90
35246;DHT22;21379;50.962;6.960;2023-02-15T09:30:43;8.40;99.90
35246;DHT22;21379;50.962;6.960;2023-02-15T09:33:09;8.80;99.90
35246;DHT22;21379;50.962;6.960;2023-02-15T09:35:36;9.30;99.90
35246;DHT22;21379;50.962;6.960;2023-02-15T09:38:03;9.80;99.90
35246;DHT22;21379;50.962;6.960;2023-02-15T09:40:35;10.20;99.90
35246;DHT22;21379;50.962;6.960;2023-02-15T09:43:28;10.40;99.90
35246;DHT22;21379;50.962;6.960;2023-02-15T09:46:25;10.70;99.90
35246;DHT22;21379;50.962;6.960;2023-02-15T09:48:58;11.20;99.90
35246;DHT22;21379;50.962;6.960;2023-02-15T09:51:48;11.50;99.90
35246;DHT22;21379;50.962;6.960;2023-02-15T09:54:37;11.90;99.90
35246;DHT22;21379;50.962;6.960;2023-02-15T09:57:10;11.70;99.90
35246;DHT22;21379;50.962;6.960;2023-02-15T09:59:49;11.50;99.90
35246;DHT22;21379;50.962;6.960;2023-02-15T10:02:28;11.60;99.90
35246;DHT22;21379;50.962;6.960;2023-02-15T10:05:09;11.70;99.90
35246;DHT22;21379;50.962;6.960;2023-02-15T10:07:51;11.30;99.90
35246;DHT22;21379;50.962;6.960;2023-02-15T10:10:25;11.40;99.90
35246;DHT22;21379;50.962;6.960;2023-02-15T10:13:10;11.20;99.90
35246;DHT22;21379;50.962;6.960;2023-02-15T10:15:50;11.70;99.90
35246;DHT22;21379;50.962;6.960;2023-02-15T10:18:36;11.60;99.90
35246;DHT22;21379;50.962;6.960;2023-02-15T10:21:14;11.80;99.90
35246;DHT22;21379;50.962;6.960;2023-02-15T10:23:59;11.80;99.90
35246;DHT22;21379;50.962;6.960;2023-02-15T10:26:33;12.10;99.90
35246;DHT22;21379;50.962;6.960;2023-02-15T10:29:08;12.10;99.90
35246;DHT22;21379;50.962;6.960;2023-02-15T10:31:46;12.30;99.90
35246;DHT22;21379;50.962;6.960;2023-02-15T10:34:19;11.50;99.90
35246;DHT22;21379;50.962;6.960;2023-02-15T10:37:03;11.40;99.90
35246;DHT22;21379;50.962;6.960;2023-02-15T10:39:41;11.60;99.90
35246;DHT22;21379;50.962;6.960;2023-02-15T10:42:16;11.80;99.90
35246;DHT22;21379;50.962;6.960;2023-02-15T10:44:57;11.70;99.90
35246;DHT22;21379;50.962;6.960;2023-02-15T10:47:53;11.90;99.90
35246;DHT22;21379;50.962;6.960;2023-02-15T10:50:45;12.30;99.90
35246;DHT22;21379;50.962;6.960;2023-02-15T10:53:32;12.40;99.90
35246;DHT22;21379;50.962;6.960;2023-02-15T10:56:10;12.10;99.90
35246;DHT22;21379;50.962;6.960;2023-02-15T10:59:11;11.90;99.90
35246;DHT22;21379;50.962;6.960;2023-02-15T11:01:49;12.10;99.90
35246;DHT22;21379;50.962;6.960;2023-02-15T11:04:39;12.40;99.90
35246;DHT22;21379;50.962;6.960;2023-02-15T11:07:12;12.50;99.90
35246;DHT22;21379;50.962;6.960;2023-02-15T11:09:44;11.90;99.90
35246;DHT22;21379;50.962;6.960;2023-02-15T11:12:16;11.40;99.90
35246;DHT22;21379;50.962;6.960;2023-02-15T11:14:50;11.40;99.90
35246;DHT22;21379;50.962;6.960;2023-02-15T11:17:22;11.60;99.90
35246;DHT22;21379;50.962;6.960;2023-02-15T11:19:57;12.60;99.90
35246;DHT22;21379;50.962;6.960;2023-02-15T11:22:26;12.90;99.90
35246;DHT22;21379;50.962;6.960;2023-02-15T11:24:54;13.30;99.90
35246;DHT22;21379;50.962;6.960;2023-02-15T11:27:25;13.50;99.90
35246;DHT22;21379;50.962;6.960;2023-02-15T11:29:58;12.80;99.90
35246;DHT22;21379;50.962;6.960;2023-02-15T11:32:28;12.50;99.90
35246;DHT22;21379;50.962;6.960;2023-02-15T11:35:01;12.60;99.90
35246;DHT22;21379;50.962;6.960;2023-02-15T11:37:34;12.20;99.90
35246;DHT22;21379;50.962;6.960;2023-02-15T11:40:04;12.40;99.90
35246;DHT22;21379;50.962;6.960;2023-02-15T11:42:39;12.10;99.90
35246;DHT22;21379;50.962;6.960;2023-02-15T11:45:19;12.40;99.90
35246;DHT22;21379;50.962;6.960;2023-02-15T11:47:48;12.50;99.90
35246;DHT22;21379;50.962;6.960;2023-02-15T11:50:20;13.00;99.90
35246;DHT22;21379;50.962;6.960;2023-02-15T11:52:48;12.80;99.90
35246;DHT22;21379;50.962;6.960;2023-02-15T11:55:20;13.00;99.90
35246;DHT22;21379;50.962;6.960;2023-02-15T11:57:52;13.00;99.90
35246;DHT22;21379;50.962;6.960;2023-02-15T12:00:27;13.20;99.90
35246;DHT22;21379;50.962;6.960;2023-02-15T12:03:03;13.30;99.90
35246;DHT22;21379;50.962;6.960;2023-02-15T12:05:37;13.50;99.90
35246;DHT22;21379;50.962;6.960;2023-02-15T12:08:15;13.80;99.90
35246;DHT22;21379;50.962;6.960;2023-02-15T12:10:51;13.20;99.90
35246;DHT22;21379;50.962;6.960;2023-02-15T12:13:20;13.20;99.90
35246;DHT22;21379;50.962;6.960;2023-02-15T12:15:49;13.30;99.90
35246;DHT22;21379;50.962;6.960;2023-02-15T12:21:13;13.50;99.90
35246;DHT22;21379;50.962;6.960;2023-02-15T12:23:47;13.60;99.90
35246;DHT22;21379;50.962;6.960;2023-02-15T12:26:15;13.80;99.90
35246;DHT22;21379;50.962;6.960;2023-02-15T12:28:50;13.90;99.90
35246;DHT22;21379;50.962;6.960;2023-02-15T12:31:20;13.70;99.90
35246;DHT22;21379;50.962;6.960;2023-02-15T12:33:51;13.50;99.90
35246;DHT22;21379;50.962;6.960;2023-02-15T12:36:22;13.30;99.90
35246;DHT22;21379;50.962;6.960;2023-02-15T12:39:04;13.40;99.90
35246;DHT22;21379;50.962;6.960;2023-02-15T12:41:31;13.20;99.90
35246;DHT22;21379;50.962;6.960;2023-02-15T12:44:09;13.10;99.90
35246;DHT22;21379;50.962;6.960;2023-02-15T12:46:41;13.00;99.90
35246;DHT22;21379;50.962;6.960;2023-02-15T12:49:17;13.00;99.90
35246;DHT22;21379;50.962;6.960;2023-02-15T12:51:50;12.90;99.90
35246;DHT22;21379;50.962;6.960;2023-02-15T12:54:36;13.00;99.90
35246;DHT22;21379;50.962;6.960;2023-02-15T12:57:23;13.00;99.90
35246;DHT22;21379;50.962;6.960;2023-02-15T12:59:52;13.10;99.90
35246;DHT22;21379;50.962;6.960;2023-02-15T13:02:30;13.20;99.90
35246;DHT22;21379;50.962;6.960;2023-02-15T13:05:14;13.20;99.90
35246;DHT22;21379;50.962;6.960;2023-02-15T13:07:49;13.40;99.90
35246;DHT22;21379;50.962;6.960;2023-02-15T13:10:25;13.20;99.90
35246;DHT22;21379;50.962;6.960;2023-02-15T13:12:52;13.10;99.90
35246;DHT22;21379;50.962;6.960;2023-02-15T13:15:26;13.00;99.90
35246;DHT22;21379;50.962;6.960;2023-02-15T13:17:55;12.80;99.90
35246;DHT22;21379;50.962;6.960;2023-02-15T13:20:22;12.90;99.90
35246;DHT22;21379;50.962;6.960;2023-02-15T13:22:52;13.20;99.90
35246;DHT22;21379;50.962;6.960;2023-02-15T13:25:22;13.40;99.90
35246;DHT22;21379;50.962;6.960;2023-02-15T13:27:54;13.60;99.90
35246;DHT22;21379;50.962;6.960;2023-02-15T13:30:25;13.70;99.90
35246;DHT22;21379;50.962;6.960;2023-02-15T13:32:57;13.80;99.90
35246;DHT22;21379;50.962;6.960;2023-02-15T13:35:25;13.70;99.90
35246;DHT22;21379;50.962;6.960;2023-02-15T13:38:11;13.60;99.90
35246;DHT22;21379;50.962;6.960;2023-02-15T13:40:47;13.60;99.90
35246;DHT22;21379;50.962;6.960;2023-02-15T13:43:27;13.70;99.90
35246;DHT22;21379;50.962;6.960;2023-02-15T13:46:06;13.90;99.90
35246;DHT22;21379;50.962;6.960;2023-02-15T13:48:41;13.90;99.90
35246;DHT22;21379;50.962;6.960;2023-02-15T13:51:17;14.00;99.90
35246;DHT22;21379;50.962;6.960;2023-02-15T13:54:05;14.00;99.90
35246;DHT22;21379;50.962;6.960;2023-02-15T13:56:43;14.00;99.90
35246;DHT22;21379;50.962;6.960;2023-02-15T13:59:28;14.20;99.90
35246;DHT22;21379;50.962;6.960;2023-02-15T14:02:18;14.40;99.90
35246;DHT22;21379;50.962;6.960;2023-02-15T14:05:05;14.50;99.90
35246;DHT22;21379;50.962;6.960;2023-02-15T14:07:49;14.40;99.90
35246;DHT22;21379;50.962;6.960;2023-02-15T14:10:32;14.40;99.90
35246;DHT22;21379;50.962;6.960;2023-02-15T14:13:27;14.50;99.90
35246;DHT22;21379;50.962;6.960;2023-02-15T14:16:02;14.40;99.90
35246;DHT22;21379;50.962;6.960;2023-02-15T14:18:35;14.30;99.90
35246;DHT22;21379;50.962;6.960;2023-02-15T14:21:10;14.40;99.90
35246;DHT22;21379;50.962;6.960;2023-02-15T14:23:52;14.70;99.90
35246;DHT22;21379;50.962;6.960;2023-02-15T14:26:34;14.40;99.90
35246;DHT22;21379;50.962;6.960;2023-02-15T14:29:15;14.40;99.90
35246;DHT22;21379;50.962;6.960;2023-02-15T14:31:45;14.20;99.90
35246;DHT22;21379;50.962;6.960;2023-02-15T14:34:19;13.80;99.90
35246;DHT22;21379;50.962;6.960;2023-02-15T14:36:48;13.60;99.90
35246;DHT22;21379;50.962;6.960;2023-02-15T14:39:22;13.40;99.90
35246;DHT22;21379;50.962;6.960;2023-02-15T14:42:16;13.20;99.90
35246;DHT22;21379;50.962;6.960;2023-02-15T14:44:48;13.10;99.90
35246;DHT22;21379;50.962;6.960;2023-02-15T14:47:21;13.00;99.90
35246;DHT22;21379;50.962;6.960;2023-02-15T14:49:48;12.90;99.90
35246;DHT22;21379;50.962;6.960;2023-02-15T14:52:15;12.90;99.90
35246;DHT22;21379;50.962;6.960;2023-02-15T14:54:56;12.80;99.90
35246;DHT22;21379;50.962;6.960;2023-02-15T14:57:30;12.80;99.90
35246;DHT22;21379;50.962;6.960;2023-02-15T14:59:59;12.80;99.90
35246;DHT22;21379;50.962;6.960;2023-02-15T15:02:29;12.80;99.90
35246;DHT22;21379;50.962;6.960;2023-02-15T15:05:08;12.70;99.90
35246;DHT22;21379;50.962;6.960;2023-02-15T15:07:43;12.60;99.90
35246;DHT22;21379;50.962;6.960;2023-02-15T15:12:53;12.50;99.90
35246;DHT22;21379;50.962;6.960;2023-02-15T15:15:33;12.40;99.90
35246;DHT22;21379;50.962;6.960;2023-02-15T15:18:02;12.30;99.90
35246;DHT22;21379;50.962;6.960;2023-02-15T15:20:44;12.20;99.90
35246;DHT22;21379;50.962;6.960;2023-02-15T15:23:36;12.20;99.90
35246;DHT22;21379;50.962;6.960;2023-02-15T15:26:29;12.10;99.90
35246;DHT22;21379;50.962;6.960;2023-02-15T15:29:03;12.00;99.90
35246;DHT22;21379;50.962;6.960;2023-02-15T15:31:42;11.90;99.90
35246;DHT22;21379;50.962;6.960;2023-02-15T15:34:33;11.80;99.90
35246;DHT22;21379;50.962;6.960;2023-02-15T15:37:26;11.70;99.90
35246;DHT22;21379;50.962;6.960;2023-02-15T15:40:19;11.60;99.90
35246;DHT22;21379;50.962;6.960;2023-02-15T15:42:54;11.60;99.90
35246;DHT22;21379;50.962;6.960;2023-02-15T15:45:54;11.50;99.90
35246;DHT22;21379;50.962;6.960;2023-02-15T15:48:31;11.50;99.90
35246;DHT22;21379;50.962;6.960;2023-02-15T15:51:02;11.40;99.90
35246;DHT22;21379;50.962;6.960;2023-02-15T15:53:34;11.30;99.90
35246;DHT22;21379;50.962;6.960;2023-02-15T15:56:08;11.20;99.90
35246;DHT22;21379;50.962;6.960;2023-02-15T15:58:36;11.10;99.90
35246;DHT22;21379;50.962;6.960;2023-02-15T16:01:10;11.00;99.90
35246;DHT22;21379;50.962;6.960;2023-02-15T16:03:48;11.00;99.90
35246;DHT22;21379;50.962;6.960;2023-02-15T16:06:27;10.90;99.90
35246;DHT22;21379;50.962;6.960;2023-02-15T16:08:54;10.80;99.90
35246;DHT22;21379;50.962;6.960;2023-02-15T16:11:24;10.70;99.90
35246;DHT22;21379;50.962;6.960;2023-02-15T16:13:51;10.70;99.90
35246;DHT22;21379;50.962;6.960;2023-02-15T16:16:22;10.60;99.90
35246;DHT22;21379;50.962;6.960;2023-02-15T16:18:50;10.50;99.90
35246;DHT22;21379;50.962;6.960;2023-02-15T16:21:20;10.50;99.90